Private Wetterstation Nrnberg - Katzwang
Wetterdaten: Januar 2014
Datum Temp. A. Feuchte A. Luftdruck Regen Wind Richtung Taupunkt Windchill Windben
01.01.2014 0,0 C 83 % 1011 hPa 0,5 l/m 8,9 km/h NO -2,5 C -2,8 C 9,9 km/h
02.01.2014 2,8 C 84 % 1007 hPa 0,5 l/m 3,6 km/h NO 0,3 C 1,1 C 4,6 km/h
03.01.2014 4,8 C 82 % 1010 hPa 1,0 l/m 7,5 km/h NO 2,0 C 3,4 C 10,4 km/h
04.01.2014 5,1 C 82 % 1003 hPa 0,5 l/m 2,0 km/h O 2,2 C 5,1 C 3,0 km/h
05.01.2014 2,8 C 84 % 1009 hPa 1,6 l/m 0,0 km/h W-NW 0,4 C 2,8 C 1,0 km/h
06.01.2014 4,1 C 81 % 1011 hPa 0,0 l/m 8,7 km/h NO 1,1 C 1,9 C 9,7 km/h
07.01.2014 7,6 C 79 % 1016 hPa 0,0 l/m 1,7 km/h NO 4,1 C 7,6 C 2,7 km/h
08.01.2014 6,9 C 81 % 1018 hPa 0,5 l/m 2,2 km/h O 3,9 C 6,9 C 3,2 km/h
09.01.2014 9,0 C 79 % 1009 hPa 1,6 l/m 14,9 km/h NO 5,5 C 4,3 C 22,9 km/h
10.01.2014 3,2 C 80 % 1016 hPa 1,0 l/m 0,3 km/h W-NW 0,0 C 3,2 C 1,4 km/h
11.01.2014 3,3 C 83 % 1016 hPa 0,0 l/m 6,2 km/h NO 0,6 C 1,3 C 7,2 km/h
12.01.2014 -0,7 C 82 % 1020 hPa 0,5 l/m 1,5 km/h O-NO -3,4 C -0,7 C 2,5 km/h
13.01.2014 2,6 C 84 % 1011 hPa 1,0 l/m 6,5 km/h NO 0,2 C 1,6 C 7,5 km/h
14.01.2014 3,3 C 85 % 1005 hPa 3,1 l/m 1,0 km/h W-NW 1,0 C 3,3 C 2,0 km/h
15.01.2014 3,5 C 80 % 1008 hPa 0,0 l/m 0,0 km/h NO 0,4 C 3,5 C 1,0 km/h
16.01.2014 4,9 C 81 % 1003 hPa 0,5 l/m 4,1 km/h NO 1,8 C 4,1 C 5,1 km/h
17.01.2014 4,3 C 83 % 1003 hPa 0,0 l/m 6,0 km/h NO 1,5 C 3,4 C 7,0 km/h
18.01.2014 4,7 C 81 % 1001 hPa 0,0 l/m 7,5 km/h O 1,7 C 3,0 C 9,3 km/h
19.01.2014 3,0 C 82 % 997 hPa 0,0 l/m 0,0 km/h N-NO 0,2 C 3,0 C 1,0 km/h
20.01.2014 4,1 C 85 % 1001 hPa 1,0 l/m 1,0 km/h W-NW 1,7 C 4,1 C 2,0 km/h
21.01.2014 2,8 C 84 % 1008 hPa 0,5 l/m 0,0 km/h W-NW 0,4 C 2,8 C 1,0 km/h
22.01.2014 3,2 C 84 % 1011 hPa 0,0 l/m 0,0 km/h N-NO 0,7 C 3,2 C 1,0 km/h
23.01.2014 3,6 C 83 % 1011 hPa 0,5 l/m 0,0 km/h NO 0,9 C 3,6 C 1,0 km/h
24.01.2014 2,7 C 84 % 1011 hPa 1,0 l/m 0,0 km/h W-NW 0,3 C 2,7 C 1,0 km/h
25.01.2014 0,1 C 83 % 1013 hPa 0,0 l/m 3,8 km/h W-NW -2,5 C -0,5 C 4,8 km/h
26.01.2014 1,2 C 84 % 1003 hPa 5,2 l/m 10,4 km/h W-NW -1,2 C -3,4 C 11,4 km/h
27.01.2014 0,7 C 83 % 998 hPa 7,3 l/m 2,9 km/h O -1,9 C 0,3 C 3,9 km/h
28.01.2014 0,8 C 83 % 999 hPa 1,6 l/m 9,2 km/h NO -1,8 C -1,6 C 10,2 km/h
29.01.2014 0,2 C 80 % 1001 hPa 0,0 l/m 8,6 km/h O -2,8 C -1,9 C 9,6 km/h
30.01.2014 -0,6 C 78 % 1005 hPa 0,0 l/m 4,8 km/h O -4,1 C -2,2 C 5,8 km/h
31.01.2014 -0,8 C 81 % 1007 hPa 0,0 l/m 0,0 km/h O-NO -3,8 C -0,8 C 1,0 km/h
Min-Datum 13.01.14 07.01.14 27.01.14 19 Tage 01.01.14 - 13.01.14 30.01.14 01.01.14
Min-Zeit 04:10 14:00 02:40 - 00:00 - 04:10 11:10 00:00
Minimum -4,6 C 72 % 994 hPa - 0,0 km/h - -6,9 C -11,0 C 1,0 km/h
Max-Datum 08.01.14 03.01.14 12.01.14 27.01.14 30.01.14 - 08.01.14 08.01.14 30.01.14
Max-Zeit 14:40 09:50 10:20 11:20 12:40 - 13:50 14:40 12:40
Maximum 13,6 C 86 % 1024 hPa 7,3 l/m 26,0 km/h
O
- 8,7 C 13,6 C 48,2 km/h
O
Durchschnitt 3,0 C 82 % 1008 hPa #29,5 l/m 4,0 km/h NO 0,2 C 2,0 C 5,3 km/h

Durchschnitt Minimum Temp.0,1 C
Durchschnitt Maximum Temp.5,9 C